sensor_id;sensor_type;location;lat;lon;timestamp;temperature;humidity
11846;DHT22;5982;37.494;-8.758;2023-06-22T00:00:24;17.50;99.90
11846;DHT22;5982;37.494;-8.758;2023-06-22T00:02:53;17.50;99.90
11846;DHT22;5982;37.494;-8.758;2023-06-22T00:05:21;17.60;99.90
11846;DHT22;5982;37.494;-8.758;2023-06-22T00:07:49;17.60;99.90
11846;DHT22;5982;37.494;-8.758;2023-06-22T00:10:17;17.60;99.90
11846;DHT22;5982;37.494;-8.758;2023-06-22T00:12:44;17.60;99.90
11846;DHT22;5982;37.494;-8.758;2023-06-22T00:15:12;17.60;99.90
11846;DHT22;5982;37.494;-8.758;2023-06-22T00:17:40;17.60;99.90
11846;DHT22;5982;37.494;-8.758;2023-06-22T00:20:10;17.60;99.90
11846;DHT22;5982;37.494;-8.758;2023-06-22T00:22:39;17.60;99.90
11846;DHT22;5982;37.494;-8.758;2023-06-22T00:25:08;17.50;99.90
11846;DHT22;5982;37.494;-8.758;2023-06-22T00:27:36;17.50;99.90
11846;DHT22;5982;37.494;-8.758;2023-06-22T00:30:05;17.50;99.90
11846;DHT22;5982;37.494;-8.758;2023-06-22T00:32:33;17.50;99.90
11846;DHT22;5982;37.494;-8.758;2023-06-22T00:35:01;17.40;99.90
11846;DHT22;5982;37.494;-8.758;2023-06-22T00:37:30;17.30;99.90
11846;DHT22;5982;37.494;-8.758;2023-06-22T00:39:58;17.20;99.90
11846;DHT22;5982;37.494;-8.758;2023-06-22T00:42:26;17.10;99.90
11846;DHT22;5982;37.494;-8.758;2023-06-22T00:44:54;17.00;99.90
11846;DHT22;5982;37.494;-8.758;2023-06-22T00:47:22;17.00;99.90
11846;DHT22;5982;37.494;-8.758;2023-06-22T00:49:50;16.90;99.90
11846;DHT22;5982;37.494;-8.758;2023-06-22T00:52:18;16.90;99.90
11846;DHT22;5982;37.494;-8.758;2023-06-22T00:54:49;16.90;99.90
11846;DHT22;5982;37.494;-8.758;2023-06-22T00:57:17;17.00;99.90
11846;DHT22;5982;37.494;-8.758;2023-06-22T00:59:47;17.00;99.90
11846;DHT22;5982;37.494;-8.758;2023-06-22T01:02:15;17.00;99.90
11846;DHT22;5982;37.494;-8.758;2023-06-22T01:04:43;17.00;99.90
11846;DHT22;5982;37.494;-8.758;2023-06-22T01:07:13;17.10;99.90
11846;DHT22;5982;37.494;-8.758;2023-06-22T01:09:51;17.00;99.90
11846;DHT22;5982;37.494;-8.758;2023-06-22T01:12:24;17.00;99.90
11846;DHT22;5982;37.494;-8.758;2023-06-22T01:14:54;16.90;99.90
11846;DHT22;5982;37.494;-8.758;2023-06-22T01:17:24;16.80;99.90
11846;DHT22;5982;37.494;-8.758;2023-06-22T01:19:54;16.70;99.90
11846;DHT22;5982;37.494;-8.758;2023-06-22T01:22:23;16.70;99.90
11846;DHT22;5982;37.494;-8.758;2023-06-22T01:24:54;16.70;99.90
11846;DHT22;5982;37.494;-8.758;2023-06-22T01:27:37;16.70;99.90
11846;DHT22;5982;37.494;-8.758;2023-06-22T01:30:13;16.80;99.90
11846;DHT22;5982;37.494;-8.758;2023-06-22T01:32:41;16.70;99.90
11846;DHT22;5982;37.494;-8.758;2023-06-22T01:35:09;16.70;99.90
11846;DHT22;5982;37.494;-8.758;2023-06-22T01:37:37;16.60;99.90
11846;DHT22;5982;37.494;-8.758;2023-06-22T01:40:06;16.60;99.90
11846;DHT22;5982;37.494;-8.758;2023-06-22T01:42:35;16.60;99.90
11846;DHT22;5982;37.494;-8.758;2023-06-22T01:45:05;16.60;99.90
11846;DHT22;5982;37.494;-8.758;2023-06-22T01:47:35;16.60;99.90
11846;DHT22;5982;37.494;-8.758;2023-06-22T01:50:03;16.40;99.90
11846;DHT22;5982;37.494;-8.758;2023-06-22T01:52:32;16.40;99.90
11846;DHT22;5982;37.494;-8.758;2023-06-22T01:55:00;16.30;99.90
11846;DHT22;5982;37.494;-8.758;2023-06-22T01:57:29;16.30;99.90
11846;DHT22;5982;37.494;-8.758;2023-06-22T01:59:59;16.40;99.90
11846;DHT22;5982;37.494;-8.758;2023-06-22T02:02:29;16.40;99.90
11846;DHT22;5982;37.494;-8.758;2023-06-22T02:05:03;16.50;99.90
11846;DHT22;5982;37.494;-8.758;2023-06-22T02:07:33;16.40;99.90
11846;DHT22;5982;37.494;-8.758;2023-06-22T02:10:04;16.40;99.90
11846;DHT22;5982;37.494;-8.758;2023-06-22T02:12:34;16.40;99.90
11846;DHT22;5982;37.494;-8.758;2023-06-22T02:15:03;16.40;99.90
11846;DHT22;5982;37.494;-8.758;2023-06-22T02:17:33;16.40;99.90
11846;DHT22;5982;37.494;-8.758;2023-06-22T02:20:02;16.40;99.90
11846;DHT22;5982;37.494;-8.758;2023-06-22T02:22:34;16.30;99.90
11846;DHT22;5982;37.494;-8.758;2023-06-22T02:25:02;16.30;99.90
11846;DHT22;5982;37.494;-8.758;2023-06-22T02:27:30;16.30;99.90
11846;DHT22;5982;37.494;-8.758;2023-06-22T02:29:58;16.40;99.90
11846;DHT22;5982;37.494;-8.758;2023-06-22T02:32:25;16.40;99.90
11846;DHT22;5982;37.494;-8.758;2023-06-22T02:34:53;16.50;99.90
11846;DHT22;5982;37.494;-8.758;2023-06-22T02:37:22;16.50;99.90
11846;DHT22;5982;37.494;-8.758;2023-06-22T02:39:51;16.60;99.90
11846;DHT22;5982;37.494;-8.758;2023-06-22T02:42:18;16.70;99.90
11846;DHT22;5982;37.494;-8.758;2023-06-22T02:44:47;16.70;99.90
11846;DHT22;5982;37.494;-8.758;2023-06-22T02:47:15;16.70;99.90
11846;DHT22;5982;37.494;-8.758;2023-06-22T02:49:42;16.70;99.90
11846;DHT22;5982;37.494;-8.758;2023-06-22T02:52:12;16.70;99.90
11846;DHT22;5982;37.494;-8.758;2023-06-22T02:54:41;16.60;99.90
11846;DHT22;5982;37.494;-8.758;2023-06-22T02:57:10;16.60;99.90
11846;DHT22;5982;37.494;-8.758;2023-06-22T02:59:39;16.50;99.90
11846;DHT22;5982;37.494;-8.758;2023-06-22T03:02:07;16.50;99.90
11846;DHT22;5982;37.494;-8.758;2023-06-22T03:04:35;16.50;99.90
11846;DHT22;5982;37.494;-8.758;2023-06-22T03:07:03;16.50;99.90
11846;DHT22;5982;37.494;-8.758;2023-06-22T03:09:31;16.40;99.90
11846;DHT22;5982;37.494;-8.758;2023-06-22T03:12:01;16.40;99.90
11846;DHT22;5982;37.494;-8.758;2023-06-22T03:14:28;16.40;99.90
11846;DHT22;5982;37.494;-8.758;2023-06-22T03:16:56;16.40;99.90
11846;DHT22;5982;37.494;-8.758;2023-06-22T03:19:28;16.30;99.90
11846;DHT22;5982;37.494;-8.758;2023-06-22T03:21:57;16.30;99.90
11846;DHT22;5982;37.494;-8.758;2023-06-22T03:24:24;16.40;99.90
11846;DHT22;5982;37.494;-8.758;2023-06-22T03:26:55;16.40;99.90
11846;DHT22;5982;37.494;-8.758;2023-06-22T03:29:25;16.50;99.90
11846;DHT22;5982;37.494;-8.758;2023-06-22T03:31:52;16.50;99.90
11846;DHT22;5982;37.494;-8.758;2023-06-22T03:34:20;16.60;99.90
11846;DHT22;5982;37.494;-8.758;2023-06-22T03:36:48;16.60;99.90
11846;DHT22;5982;37.494;-8.758;2023-06-22T03:39:15;16.50;99.90
11846;DHT22;5982;37.494;-8.758;2023-06-22T03:41:43;16.50;99.90
11846;DHT22;5982;37.494;-8.758;2023-06-22T03:44:11;16.60;99.90
11846;DHT22;5982;37.494;-8.758;2023-06-22T03:46:40;16.60;99.90
11846;DHT22;5982;37.494;-8.758;2023-06-22T03:49:08;16.60;99.90
11846;DHT22;5982;37.494;-8.758;2023-06-22T03:51:35;16.70;99.90
11846;DHT22;5982;37.494;-8.758;2023-06-22T03:54:03;16.60;99.90
11846;DHT22;5982;37.494;-8.758;2023-06-22T03:56:31;16.60;99.90
11846;DHT22;5982;37.494;-8.758;2023-06-22T03:58:58;16.50;99.90
11846;DHT22;5982;37.494;-8.758;2023-06-22T04:01:26;16.50;99.90
11846;DHT22;5982;37.494;-8.758;2023-06-22T04:03:55;16.60;99.90
11846;DHT22;5982;37.494;-8.758;2023-06-22T04:06:23;16.60;99.90
11846;DHT22;5982;37.494;-8.758;2023-06-22T04:08:51;16.60;99.90
11846;DHT22;5982;37.494;-8.758;2023-06-22T04:11:19;16.50;99.90
11846;DHT22;5982;37.494;-8.758;2023-06-22T04:13:47;16.50;99.90
11846;DHT22;5982;37.494;-8.758;2023-06-22T04:16:16;16.50;99.90
11846;DHT22;5982;37.494;-8.758;2023-06-22T04:18:44;16.60;99.90
11846;DHT22;5982;37.494;-8.758;2023-06-22T04:21:13;16.50;99.90
11846;DHT22;5982;37.494;-8.758;2023-06-22T04:23:41;16.50;99.90
11846;DHT22;5982;37.494;-8.758;2023-06-22T04:26:09;16.50;99.90
11846;DHT22;5982;37.494;-8.758;2023-06-22T04:28:37;16.50;99.90
11846;DHT22;5982;37.494;-8.758;2023-06-22T04:31:05;16.50;99.90
11846;DHT22;5982;37.494;-8.758;2023-06-22T04:33:33;16.60;99.90
11846;DHT22;5982;37.494;-8.758;2023-06-22T04:36:00;16.50;99.90
11846;DHT22;5982;37.494;-8.758;2023-06-22T04:38:31;16.50;99.90
11846;DHT22;5982;37.494;-8.758;2023-06-22T04:40:59;16.40;99.90
11846;DHT22;5982;37.494;-8.758;2023-06-22T04:43:28;16.30;99.90
11846;DHT22;5982;37.494;-8.758;2023-06-22T04:45:56;16.40;99.90
11846;DHT22;5982;37.494;-8.758;2023-06-22T04:48:29;16.40;99.90
11846;DHT22;5982;37.494;-8.758;2023-06-22T04:50:58;16.40;99.90
11846;DHT22;5982;37.494;-8.758;2023-06-22T04:53:28;16.40;99.90
11846;DHT22;5982;37.494;-8.758;2023-06-22T04:55:58;16.40;99.90
11846;DHT22;5982;37.494;-8.758;2023-06-22T04:58:25;16.30;99.90
11846;DHT22;5982;37.494;-8.758;2023-06-22T05:00:54;16.30;99.90
11846;DHT22;5982;37.494;-8.758;2023-06-22T05:03:24;16.30;99.90
11846;DHT22;5982;37.494;-8.758;2023-06-22T05:05:52;16.30;99.90
11846;DHT22;5982;37.494;-8.758;2023-06-22T05:08:20;16.40;99.90
11846;DHT22;5982;37.494;-8.758;2023-06-22T05:10:52;16.40;99.90
11846;DHT22;5982;37.494;-8.758;2023-06-22T05:13:21;16.50;99.90
11846;DHT22;5982;37.494;-8.758;2023-06-22T05:15:52;16.50;99.90
11846;DHT22;5982;37.494;-8.758;2023-06-22T05:18:27;16.50;99.90
11846;DHT22;5982;37.494;-8.758;2023-06-22T05:20:55;16.50;99.90
11846;DHT22;5982;37.494;-8.758;2023-06-22T05:23:22;16.60;99.90
11846;DHT22;5982;37.494;-8.758;2023-06-22T05:25:50;16.60;99.90
11846;DHT22;5982;37.494;-8.758;2023-06-22T05:28:21;16.60;99.90
11846;DHT22;5982;37.494;-8.758;2023-06-22T05:30:49;16.60;99.90
11846;DHT22;5982;37.494;-8.758;2023-06-22T05:33:16;16.60;99.90
11846;DHT22;5982;37.494;-8.758;2023-06-22T05:35:44;16.70;99.90
11846;DHT22;5982;37.494;-8.758;2023-06-22T05:38:12;16.80;99.90
11846;DHT22;5982;37.494;-8.758;2023-06-22T05:40:40;16.90;99.90
11846;DHT22;5982;37.494;-8.758;2023-06-22T05:43:08;17.20;99.90
11846;DHT22;5982;37.494;-8.758;2023-06-22T05:45:37;17.60;99.90
11846;DHT22;5982;37.494;-8.758;2023-06-22T05:48:05;18.00;99.90
11846;DHT22;5982;37.494;-8.758;2023-06-22T05:50:33;18.10;99.90
11846;DHT22;5982;37.494;-8.758;2023-06-22T05:53:00;18.00;99.90
11846;DHT22;5982;37.494;-8.758;2023-06-22T05:55:28;17.90;99.90
11846;DHT22;5982;37.494;-8.758;2023-06-22T05:57:56;18.00;99.90
11846;DHT22;5982;37.494;-8.758;2023-06-22T06:00:24;18.10;99.90
11846;DHT22;5982;37.494;-8.758;2023-06-22T06:02:53;18.80;99.90
11846;DHT22;5982;37.494;-8.758;2023-06-22T06:05:21;20.00;99.90
11846;DHT22;5982;37.494;-8.758;2023-06-22T06:07:49;21.20;99.90
11846;DHT22;5982;37.494;-8.758;2023-06-22T06:10:17;22.30;99.90
11846;DHT22;5982;37.494;-8.758;2023-06-22T06:12:44;23.30;99.90
11846;DHT22;5982;37.494;-8.758;2023-06-22T06:15:12;24.40;99.90
11846;DHT22;5982;37.494;-8.758;2023-06-22T06:17:49;25.40;99.90
11846;DHT22;5982;37.494;-8.758;2023-06-22T06:20:20;26.30;99.90
11846;DHT22;5982;37.494;-8.758;2023-06-22T06:22:48;27.20;99.90
11846;DHT22;5982;37.494;-8.758;2023-06-22T06:25:16;27.90;99.90
11846;DHT22;5982;37.494;-8.758;2023-06-22T06:27:45;28.60;99.90
11846;DHT22;5982;37.494;-8.758;2023-06-22T06:30:14;29.00;99.90
11846;DHT22;5982;37.494;-8.758;2023-06-22T06:32:43;29.50;99.90
11846;DHT22;5982;37.494;-8.758;2023-06-22T06:35:12;30.10;99.90
11846;DHT22;5982;37.494;-8.758;2023-06-22T06:37:43;30.50;99.90
11846;DHT22;5982;37.494;-8.758;2023-06-22T06:40:12;30.90;99.90
11846;DHT22;5982;37.494;-8.758;2023-06-22T06:42:41;31.20;99.90
11846;DHT22;5982;37.494;-8.758;2023-06-22T06:45:11;31.50;99.90
11846;DHT22;5982;37.494;-8.758;2023-06-22T06:47:39;31.80;99.90
11846;DHT22;5982;37.494;-8.758;2023-06-22T06:50:07;32.10;99.90
11846;DHT22;5982;37.494;-8.758;2023-06-22T06:52:35;32.40;99.90
11846;DHT22;5982;37.494;-8.758;2023-06-22T06:55:05;32.60;99.90
11846;DHT22;5982;37.494;-8.758;2023-06-22T06:57:33;32.80;99.90
11846;DHT22;5982;37.494;-8.758;2023-06-22T07:00:03;32.90;99.90
11846;DHT22;5982;37.494;-8.758;2023-06-22T07:02:36;33.00;99.90
11846;DHT22;5982;37.494;-8.758;2023-06-22T07:05:04;32.80;99.90
11846;DHT22;5982;37.494;-8.758;2023-06-22T07:07:32;32.40;99.90
11846;DHT22;5982;37.494;-8.758;2023-06-22T07:10:00;32.00;99.90
11846;DHT22;5982;37.494;-8.758;2023-06-22T07:12:30;31.40;99.90
11846;DHT22;5982;37.494;-8.758;2023-06-22T07:15:01;30.50;99.90
11846;DHT22;5982;37.494;-8.758;2023-06-22T07:17:29;29.60;99.90
11846;DHT22;5982;37.494;-8.758;2023-06-22T07:19:57;28.50;99.90
11846;DHT22;5982;37.494;-8.758;2023-06-22T07:22:25;27.80;99.90
11846;DHT22;5982;37.494;-8.758;2023-06-22T07:24:52;27.10;99.90
11846;DHT22;5982;37.494;-8.758;2023-06-22T07:27:20;26.50;99.90
11846;DHT22;5982;37.494;-8.758;2023-06-22T07:29:49;26.00;99.90
11846;DHT22;5982;37.494;-8.758;2023-06-22T07:32:17;25.60;99.90
11846;DHT22;5982;37.494;-8.758;2023-06-22T07:34:45;25.20;99.90
11846;DHT22;5982;37.494;-8.758;2023-06-22T07:37:12;25.00;99.90
11846;DHT22;5982;37.494;-8.758;2023-06-22T07:39:40;24.80;99.90
11846;DHT22;5982;37.494;-8.758;2023-06-22T07:42:08;24.70;99.90
11846;DHT22;5982;37.494;-8.758;2023-06-22T07:44:36;24.60;99.90
11846;DHT22;5982;37.494;-8.758;2023-06-22T07:47:05;24.50;99.90
11846;DHT22;5982;37.494;-8.758;2023-06-22T07:49:33;24.40;99.90
11846;DHT22;5982;37.494;-8.758;2023-06-22T07:52:01;24.30;99.90
11846;DHT22;5982;37.494;-8.758;2023-06-22T07:54:29;24.30;99.90
11846;DHT22;5982;37.494;-8.758;2023-06-22T07:56:56;24.30;99.90
11846;DHT22;5982;37.494;-8.758;2023-06-22T07:59:24;24.50;99.90
11846;DHT22;5982;37.494;-8.758;2023-06-22T08:01:52;24.50;99.90
11846;DHT22;5982;37.494;-8.758;2023-06-22T08:04:21;24.60;99.90
11846;DHT22;5982;37.494;-8.758;2023-06-22T08:06:48;24.70;99.90
11846;DHT22;5982;37.494;-8.758;2023-06-22T08:09:16;24.70;99.90
11846;DHT22;5982;37.494;-8.758;2023-06-22T08:11:44;24.80;99.90
11846;DHT22;5982;37.494;-8.758;2023-06-22T08:14:12;24.80;99.90
11846;DHT22;5982;37.494;-8.758;2023-06-22T08:16:40;24.90;99.90
11846;DHT22;5982;37.494;-8.758;2023-06-22T08:19:08;25.00;99.90
11846;DHT22;5982;37.494;-8.758;2023-06-22T08:21:37;25.20;99.90
11846;DHT22;5982;37.494;-8.758;2023-06-22T08:24:05;25.40;99.90
11846;DHT22;5982;37.494;-8.758;2023-06-22T08:26:33;25.50;99.90
11846;DHT22;5982;37.494;-8.758;2023-06-22T08:29:03;25.70;99.90
11846;DHT22;5982;37.494;-8.758;2023-06-22T08:31:31;25.80;99.90
11846;DHT22;5982;37.494;-8.758;2023-06-22T08:34:00;26.00;99.90
11846;DHT22;5982;37.494;-8.758;2023-06-22T08:36:27;26.30;99.90
11846;DHT22;5982;37.494;-8.758;2023-06-22T08:38:59;26.50;99.90
11846;DHT22;5982;37.494;-8.758;2023-06-22T08:41:28;26.50;99.90
11846;DHT22;5982;37.494;-8.758;2023-06-22T08:43:56;26.60;99.90
11846;DHT22;5982;37.494;-8.758;2023-06-22T08:46:24;26.80;99.90
11846;DHT22;5982;37.494;-8.758;2023-06-22T08:48:55;26.90;99.90
11846;DHT22;5982;37.494;-8.758;2023-06-22T08:51:24;27.00;99.90
11846;DHT22;5982;37.494;-8.758;2023-06-22T08:53:51;26.90;99.90
11846;DHT22;5982;37.494;-8.758;2023-06-22T08:56:21;27.10;99.90
11846;DHT22;5982;37.494;-8.758;2023-06-22T08:58:48;27.20;99.90
11846;DHT22;5982;37.494;-8.758;2023-06-22T09:01:16;27.30;99.90
11846;DHT22;5982;37.494;-8.758;2023-06-22T09:03:44;27.40;99.90
11846;DHT22;5982;37.494;-8.758;2023-06-22T09:06:20;27.50;99.90
11846;DHT22;5982;37.494;-8.758;2023-06-22T09:08:48;27.60;99.90
11846;DHT22;5982;37.494;-8.758;2023-06-22T09:11:16;27.70;99.90
11846;DHT22;5982;37.494;-8.758;2023-06-22T09:13:45;27.80;99.90
11846;DHT22;5982;37.494;-8.758;2023-06-22T09:16:13;27.80;99.90
11846;DHT22;5982;37.494;-8.758;2023-06-22T09:18:40;27.90;99.90
11846;DHT22;5982;37.494;-8.758;2023-06-22T09:21:08;28.00;99.90
11846;DHT22;5982;37.494;-8.758;2023-06-22T09:23:36;28.10;99.90
11846;DHT22;5982;37.494;-8.758;2023-06-22T09:26:04;28.10;99.90
11846;DHT22;5982;37.494;-8.758;2023-06-22T09:28:32;28.10;99.90
11846;DHT22;5982;37.494;-8.758;2023-06-22T09:31:01;28.00;99.90
11846;DHT22;5982;37.494;-8.758;2023-06-22T09:33:29;27.80;99.90
11846;DHT22;5982;37.494;-8.758;2023-06-22T09:35:56;27.60;99.90
11846;DHT22;5982;37.494;-8.758;2023-06-22T09:38:24;27.40;99.90
11846;DHT22;5982;37.494;-8.758;2023-06-22T09:40:52;27.30;99.90
11846;DHT22;5982;37.494;-8.758;2023-06-22T09:43:19;27.20;99.90
11846;DHT22;5982;37.494;-8.758;2023-06-22T09:45:47;27.10;99.90
11846;DHT22;5982;37.494;-8.758;2023-06-22T09:48:16;26.90;99.90
11846;DHT22;5982;37.494;-8.758;2023-06-22T09:50:44;26.80;99.90
11846;DHT22;5982;37.494;-8.758;2023-06-22T09:53:12;26.70;99.90
11846;DHT22;5982;37.494;-8.758;2023-06-22T09:55:40;26.70;99.90
11846;DHT22;5982;37.494;-8.758;2023-06-22T09:58:07;26.70;99.90
11846;DHT22;5982;37.494;-8.758;2023-06-22T10:00:35;26.50;99.90
11846;DHT22;5982;37.494;-8.758;2023-06-22T10:03:03;26.40;99.90
11846;DHT22;5982;37.494;-8.758;2023-06-22T10:05:33;26.30;99.90
11846;DHT22;5982;37.494;-8.758;2023-06-22T10:08:00;26.20;99.90
11846;DHT22;5982;37.494;-8.758;2023-06-22T10:10:28;26.20;99.90
11846;DHT22;5982;37.494;-8.758;2023-06-22T10:12:57;26.20;99.90
11846;DHT22;5982;37.494;-8.758;2023-06-22T10:15:25;26.10;99.90
11846;DHT22;5982;37.494;-8.758;2023-06-22T10:17:52;26.00;99.90
11846;DHT22;5982;37.494;-8.758;2023-06-22T10:20:20;26.00;99.90
11846;DHT22;5982;37.494;-8.758;2023-06-22T10:22:49;26.10;99.90
11846;DHT22;5982;37.494;-8.758;2023-06-22T10:25:17;26.10;99.90
11846;DHT22;5982;37.494;-8.758;2023-06-22T10:27:45;26.10;99.90
11846;DHT22;5982;37.494;-8.758;2023-06-22T10:30:13;26.20;99.90
11846;DHT22;5982;37.494;-8.758;2023-06-22T10:32:41;26.30;99.90
11846;DHT22;5982;37.494;-8.758;2023-06-22T10:35:09;26.30;99.90
11846;DHT22;5982;37.494;-8.758;2023-06-22T10:37:39;26.30;99.90
11846;DHT22;5982;37.494;-8.758;2023-06-22T10:40:10;26.40;99.90
11846;DHT22;5982;37.494;-8.758;2023-06-22T10:42:39;26.40;99.90
11846;DHT22;5982;37.494;-8.758;2023-06-22T10:45:07;26.30;99.90
11846;DHT22;5982;37.494;-8.758;2023-06-22T10:47:35;26.40;99.90
11846;DHT22;5982;37.494;-8.758;2023-06-22T10:50:04;26.30;99.90
11846;DHT22;5982;37.494;-8.758;2023-06-22T10:52:32;26.40;99.90
11846;DHT22;5982;37.494;-8.758;2023-06-22T10:55:00;26.40;99.90
11846;DHT22;5982;37.494;-8.758;2023-06-22T10:57:29;26.40;99.90
11846;DHT22;5982;37.494;-8.758;2023-06-22T10:59:57;26.30;99.90
11846;DHT22;5982;37.494;-8.758;2023-06-22T11:02:24;26.30;99.90
11846;DHT22;5982;37.494;-8.758;2023-06-22T11:04:53;26.30;99.90
11846;DHT22;5982;37.494;-8.758;2023-06-22T11:07:21;26.20;99.90
11846;DHT22;5982;37.494;-8.758;2023-06-22T11:09:49;26.20;99.90
11846;DHT22;5982;37.494;-8.758;2023-06-22T11:12:35;26.20;99.90
11846;DHT22;5982;37.494;-8.758;2023-06-22T11:15:04;26.20;99.90
11846;DHT22;5982;37.494;-8.758;2023-06-22T11:17:32;26.30;99.90
11846;DHT22;5982;37.494;-8.758;2023-06-22T11:20:00;26.30;99.90
11846;DHT22;5982;37.494;-8.758;2023-06-22T11:22:30;26.30;99.90
11846;DHT22;5982;37.494;-8.758;2023-06-22T11:24:59;26.40;99.90
11846;DHT22;5982;37.494;-8.758;2023-06-22T11:27:26;26.50;99.90
11846;DHT22;5982;37.494;-8.758;2023-06-22T11:29:56;26.60;99.90
11846;DHT22;5982;37.494;-8.758;2023-06-22T11:32:23;26.70;99.90
11846;DHT22;5982;37.494;-8.758;2023-06-22T11:34:51;26.70;99.90
11846;DHT22;5982;37.494;-8.758;2023-06-22T11:37:19;26.90;99.90
11846;DHT22;5982;37.494;-8.758;2023-06-22T11:39:46;26.80;99.90
11846;DHT22;5982;37.494;-8.758;2023-06-22T11:42:34;26.90;99.90
11846;DHT22;5982;37.494;-8.758;2023-06-22T11:45:04;26.90;99.90
11846;DHT22;5982;37.494;-8.758;2023-06-22T11:47:32;27.00;99.90
11846;DHT22;5982;37.494;-8.758;2023-06-22T11:50:00;27.00;99.90
11846;DHT22;5982;37.494;-8.758;2023-06-22T11:52:28;27.00;99.90
11846;DHT22;5982;37.494;-8.758;2023-06-22T11:54:55;27.10;99.90
11846;DHT22;5982;37.494;-8.758;2023-06-22T11:57:25;27.20;99.90
11846;DHT22;5982;37.494;-8.758;2023-06-22T11:59:52;27.30;99.90
11846;DHT22;5982;37.494;-8.758;2023-06-22T12:02:21;27.30;99.90
11846;DHT22;5982;37.494;-8.758;2023-06-22T12:04:49;27.30;99.90
11846;DHT22;5982;37.494;-8.758;2023-06-22T12:07:18;27.30;99.90
11846;DHT22;5982;37.494;-8.758;2023-06-22T12:09:45;27.30;99.90
11846;DHT22;5982;37.494;-8.758;2023-06-22T12:12:13;27.40;99.90
11846;DHT22;5982;37.494;-8.758;2023-06-22T12:14:41;27.30;99.90
11846;DHT22;5982;37.494;-8.758;2023-06-22T12:17:08;27.30;99.90
11846;DHT22;5982;37.494;-8.758;2023-06-22T12:19:38;27.40;99.90
11846;DHT22;5982;37.494;-8.758;2023-06-22T12:22:05;27.30;99.90
11846;DHT22;5982;37.494;-8.758;2023-06-22T12:24:33;27.30;99.90
11846;DHT22;5982;37.494;-8.758;2023-06-22T12:27:01;27.20;99.90
11846;DHT22;5982;37.494;-8.758;2023-06-22T12:29:29;27.10;99.90
11846;DHT22;5982;37.494;-8.758;2023-06-22T12:31:56;27.10;99.90
11846;DHT22;5982;37.494;-8.758;2023-06-22T12:34:24;27.10;99.90
11846;DHT22;5982;37.494;-8.758;2023-06-22T12:36:53;27.20;99.90
11846;DHT22;5982;37.494;-8.758;2023-06-22T12:39:21;27.30;99.90
11846;DHT22;5982;37.494;-8.758;2023-06-22T12:41:49;27.30;99.90
11846;DHT22;5982;37.494;-8.758;2023-06-22T12:44:17;27.20;99.90
11846;DHT22;5982;37.494;-8.758;2023-06-22T12:46:44;27.30;99.90
11846;DHT22;5982;37.494;-8.758;2023-06-22T12:49:12;27.30;99.90
11846;DHT22;5982;37.494;-8.758;2023-06-22T12:51:40;27.20;99.90
11846;DHT22;5982;37.494;-8.758;2023-06-22T12:54:10;27.20;99.90
11846;DHT22;5982;37.494;-8.758;2023-06-22T12:56:38;27.20;99.90
11846;DHT22;5982;37.494;-8.758;2023-06-22T12:59:06;27.40;99.90
11846;DHT22;5982;37.494;-8.758;2023-06-22T13:01:34;27.50;99.90
11846;DHT22;5982;37.494;-8.758;2023-06-22T13:04:02;27.50;99.90
11846;DHT22;5982;37.494;-8.758;2023-06-22T13:06:30;27.50;99.90
11846;DHT22;5982;37.494;-8.758;2023-06-22T13:08:58;27.50;99.90
11846;DHT22;5982;37.494;-8.758;2023-06-22T13:11:27;27.60;99.90
11846;DHT22;5982;37.494;-8.758;2023-06-22T13:13:55;27.70;99.90
11846;DHT22;5982;37.494;-8.758;2023-06-22T13:16:23;27.80;99.90
11846;DHT22;5982;37.494;-8.758;2023-06-22T13:18:50;27.90;99.90
11846;DHT22;5982;37.494;-8.758;2023-06-22T13:21:18;28.00;99.90
11846;DHT22;5982;37.494;-8.758;2023-06-22T13:23:46;27.90;99.90
11846;DHT22;5982;37.494;-8.758;2023-06-22T13:26:13;27.90;99.90
11846;DHT22;5982;37.494;-8.758;2023-06-22T13:28:43;27.70;99.90
11846;DHT22;5982;37.494;-8.758;2023-06-22T13:31:10;27.60;99.90
11846;DHT22;5982;37.494;-8.758;2023-06-22T13:33:38;27.50;99.90
11846;DHT22;5982;37.494;-8.758;2023-06-22T13:36:06;27.30;99.90
11846;DHT22;5982;37.494;-8.758;2023-06-22T13:38:34;27.20;99.90
11846;DHT22;5982;37.494;-8.758;2023-06-22T13:41:04;27.20;99.90
11846;DHT22;5982;37.494;-8.758;2023-06-22T13:43:32;27.30;99.90
11846;DHT22;5982;37.494;-8.758;2023-06-22T13:46:01;27.50;99.90
11846;DHT22;5982;37.494;-8.758;2023-06-22T13:48:29;27.50;99.90
11846;DHT22;5982;37.494;-8.758;2023-06-22T13:50:56;27.60;99.90
11846;DHT22;5982;37.494;-8.758;2023-06-22T13:53:24;27.60;99.90
11846;DHT22;5982;37.494;-8.758;2023-06-22T13:55:52;27.80;99.90
11846;DHT22;5982;37.494;-8.758;2023-06-22T13:58:20;27.80;99.90
11846;DHT22;5982;37.494;-8.758;2023-06-22T14:00:47;27.80;99.90
11846;DHT22;5982;37.494;-8.758;2023-06-22T14:03:17;27.90;99.90
11846;DHT22;5982;37.494;-8.758;2023-06-22T14:05:44;27.80;99.90
11846;DHT22;5982;37.494;-8.758;2023-06-22T14:08:12;27.80;99.90
11846;DHT22;5982;37.494;-8.758;2023-06-22T14:10:40;27.80;99.90
11846;DHT22;5982;37.494;-8.758;2023-06-22T14:13:08;27.80;99.90
11846;DHT22;5982;37.494;-8.758;2023-06-22T14:15:35;27.70;99.90
11846;DHT22;5982;37.494;-8.758;2023-06-22T14:18:03;27.50;99.90
11846;DHT22;5982;37.494;-8.758;2023-06-22T14:20:32;27.50;99.90
11846;DHT22;5982;37.494;-8.758;2023-06-22T14:23:00;27.60;99.90
11846;DHT22;5982;37.494;-8.758;2023-06-22T14:25:28;27.70;99.90
11846;DHT22;5982;37.494;-8.758;2023-06-22T14:27:56;27.70;99.90
11846;DHT22;5982;37.494;-8.758;2023-06-22T14:30:23;27.80;99.90
11846;DHT22;5982;37.494;-8.758;2023-06-22T14:32:51;27.70;99.90
11846;DHT22;5982;37.494;-8.758;2023-06-22T14:35:19;27.60;99.90
11846;DHT22;5982;37.494;-8.758;2023-06-22T14:37:49;27.50;99.90
11846;DHT22;5982;37.494;-8.758;2023-06-22T14:40:17;27.40;99.90
11846;DHT22;5982;37.494;-8.758;2023-06-22T14:42:45;27.50;99.90
11846;DHT22;5982;37.494;-8.758;2023-06-22T14:45:12;27.60;99.90
11846;DHT22;5982;37.494;-8.758;2023-06-22T14:47:40;27.70;99.90
11846;DHT22;5982;37.494;-8.758;2023-06-22T14:50:08;27.90;99.90
11846;DHT22;5982;37.494;-8.758;2023-06-22T14:52:36;28.10;99.90
11846;DHT22;5982;37.494;-8.758;2023-06-22T14:55:06;28.00;99.90
11846;DHT22;5982;37.494;-8.758;2023-06-22T14:57:34;28.00;99.90
11846;DHT22;5982;37.494;-8.758;2023-06-22T15:00:02;28.00;99.90
11846;DHT22;5982;37.494;-8.758;2023-06-22T15:02:32;27.90;99.90
11846;DHT22;5982;37.494;-8.758;2023-06-22T15:04:59;27.90;99.90
11846;DHT22;5982;37.494;-8.758;2023-06-22T15:07:27;27.80;99.90
11846;DHT22;5982;37.494;-8.758;2023-06-22T15:09:55;27.60;99.90
11846;DHT22;5982;37.494;-8.758;2023-06-22T15:12:24;27.50;99.90
11846;DHT22;5982;37.494;-8.758;2023-06-22T15:14:52;27.50;99.90
11846;DHT22;5982;37.494;-8.758;2023-06-22T15:17:19;27.50;99.90
11846;DHT22;5982;37.494;-8.758;2023-06-22T15:19:47;27.60;99.90
11846;DHT22;5982;37.494;-8.758;2023-06-22T15:22:15;27.60;99.90
11846;DHT22;5982;37.494;-8.758;2023-06-22T15:24:45;27.70;99.90
11846;DHT22;5982;37.494;-8.758;2023-06-22T15:27:13;27.70;99.90
11846;DHT22;5982;37.494;-8.758;2023-06-22T15:29:43;27.60;99.90
11846;DHT22;5982;37.494;-8.758;2023-06-22T15:32:10;27.70;99.90
11846;DHT22;5982;37.494;-8.758;2023-06-22T15:34:38;27.50;99.90
11846;DHT22;5982;37.494;-8.758;2023-06-22T15:37:06;27.70;99.90